Time;durP1;ratioP1;P1;durP2;ratioP2;P2;SDS_P1;SDS_P2;PMS_P1;PMS_P2;Temp;Humidity;BMP_temperature;BMP_pressure;BME280_temperature;BME280_humidity;BME280_pressure;Samples;Min_cycle;Max_cycle;Signal;HPM_P1;HPM_P2
2023/07/10 00:04:18;;;;;;;2.90;2.20;;;;;;;21.74;62.45;101070.64;5012475;57;1139297;-64
2023/07/10 00:09:24;;;;;;;4.10;2.30;;;;;;;21.52;62.89;101068.78;4948780;57;1138797;-64
2023/07/10 00:14:33;;;;;;;2.58;2.37;;;;;;;21.46;63.40;101092.34;4967768;57;1138652;-65
2023/07/10 00:19:37;;;;;;;2.67;2.42;;;;;;;21.22;63.93;101091.45;4948206;57;1138955;-66
2023/07/10 00:24:43;;;;;;;6.65;2.45;;;;;;;21.21;64.54;101083.56;5022056;56;1138580;-65
2023/07/10 00:29:48;;;;;;;4.75;2.72;;;;;;;21.15;64.08;101078.32;5050078;56;1138778;-64
2023/07/10 00:34:54;;;;;;;5.15;2.70;;;;;;;21.00;63.96;101075.52;5010633;56;1138978;-64
2023/07/10 00:40:01;;;;;;;3.55;2.42;;;;;;;20.88;64.07;101060.77;5000482;57;1139156;-65
2023/07/10 00:45:12;;;;;;;5.45;2.72;;;;;;;20.77;64.22;101063.00;5010275;57;1138826;-66
2023/07/10 00:50:25;;;;;;;2.62;2.30;;;;;;;20.89;64.56;101061.11;5020313;57;1138809;-65
2023/07/10 00:55:39;;;;;;;5.28;2.35;;;;;;;21.01;64.28;101058.38;5000342;57;1138807;-64
2023/07/10 01:01:07;;;;;;;5.00;2.37;;;;;;;20.98;63.66;101049.81;5033758;56;1138782;-65
2023/07/10 01:06:22;;;;;;;4.87;2.45;;;;;;;20.79;63.80;101046.16;5083811;56;1139085;-64
2023/07/10 01:11:28;;;;;;;5.33;2.85;;;;;;;20.79;64.43;101056.91;5103034;56;1138600;-65
2023/07/10 01:16:35;;;;;;;5.05;2.60;;;;;;;20.61;64.92;101059.34;5083179;56;1138648;-63
2023/07/10 01:21:41;;;;;;;3.45;2.42;;;;;;;20.67;65.66;101060.48;5067613;56;1138606;-65
2023/07/10 01:26:46;;;;;;;4.70;2.45;;;;;;;20.77;65.73;101069.22;5049541;56;1138748;-64
2023/07/10 01:31:56;;;;;;;5.70;2.70;;;;;;;20.78;65.69;101068.17;5028111;56;1138725;-65
2023/07/10 01:37:06;;;;;;;4.24;2.72;;;;;;;20.73;65.36;101067.03;5017596;57;1138852;-67
2023/07/10 01:42:12;;;;;;;6.97;3.10;;;;;;;20.51;64.89;101077.47;5000429;57;1138986;-65
2023/07/10 01:47:18;;;;;;;6.28;3.10;;;;;;;20.34;66.33;101073.92;5020039;57;1138838;-64
2023/07/10 01:52:25;;;;;;;5.58;3.00;;;;;;;20.42;66.94;101080.34;5000205;58;1138456;-64
2023/07/10 01:57:30;;;;;;;5.70;2.67;;;;;;;20.35;67.04;101078.80;5019695;57;1138735;-65
2023/07/10 02:02:36;;;;;;;2.62;2.42;;;;;;;20.29;67.01;101071.43;5048858;57;1138779;-64
2023/07/10 02:07:42;;;;;;;9.70;2.77;;;;;;;20.15;66.84;101074.79;5029423;57;1138887;-64
2023/07/10 02:12:48;;;;;;;3.08;2.77;;;;;;;20.08;67.55;101078.63;5029376;57;1138866;-64
2023/07/10 02:17:57;;;;;;;5.60;2.98;;;;;;;20.08;67.78;101074.61;5048790;57;1138877;-66
2023/07/10 02:23:01;;;;;;;3.08;2.85;;;;;;;20.14;68.14;101076.63;5029410;56;1138740;-65
2023/07/10 02:28:07;;;;;;;7.58;2.80;;;;;;;20.01;67.98;101054.28;5030369;56;1138957;-64
2023/07/10 02:33:13;;;;;;;3.18;2.60;;;;;;;19.85;69.07;101049.43;5004449;55;1138939;-65
2023/07/10 02:38:18;;;;;;;4.53;2.60;;;;;;;19.77;69.66;101060.14;5093246;56;1138734;-64
2023/07/10 02:43:24;;;;;;;4.58;2.90;;;;;;;19.72;69.84;101062.47;5083653;56;1138943;-64
2023/07/10 02:48:31;;;;;;;3.33;2.98;;;;;;;19.55;69.84;101058.94;5083401;56;1138822;-65
2023/07/10 02:53:37;;;;;;;10.23;3.05;;;;;;;19.51;71.04;101057.58;5049456;57;1138918;-64
2023/07/10 02:58:43;;;;;;;6.53;3.10;;;;;;;19.47;71.31;101054.34;5006862;57;1140854;-64
2023/07/10 03:03:48;;;;;;;5.42;3.05;;;;;;;19.46;71.38;101047.30;4971392;55;1138946;-64
2023/07/10 03:08:54;;;;;;;16.75;3.58;;;;;;;19.43;70.90;101045.44;4985989;57;1138905;-64
2023/07/10 03:14:02;;;;;;;8.73;3.40;;;;;;;19.33;70.95;101044.24;4970595;56;1140963;-64
2023/07/10 03:19:07;;;;;;;7.42;3.27;;;;;;;19.31;71.14;101040.87;5019852;55;1138680;-65
2023/07/10 03:24:13;;;;;;;9.18;3.22;;;;;;;19.22;70.84;101036.00;4978591;57;1139002;-65
2023/07/10 03:29:18;;;;;;;3.10;2.72;;;;;;;19.32;71.46;101042.56;4974216;57;1139020;-64
2023/07/10 03:34:24;;;;;;;6.47;3.27;;;;;;;19.44;71.38;101038.56;5032972;55;1139001;-65
2023/07/10 03:39:30;;;;;;;7.28;3.35;;;;;;;19.54;71.24;101036.63;4962421;56;1138752;-64
2023/07/10 03:44:36;;;;;;;3.92;3.15;;;;;;;19.46;70.57;101039.25;5048930;57;1139015;-64
2023/07/10 03:49:41;;;;;;;3.70;3.00;;;;;;;19.14;70.51;101035.95;5007434;56;1138981;-65
2023/07/10 03:54:47;;;;;;;5.55;3.45;;;;;;;19.21;71.90;101037.00;5006985;56;1139184;-64
2023/07/10 03:59:53;;;;;;;17.57;4.30;;;;;;;19.28;72.36;101039.86;5055575;57;1138956;-65
2023/07/10 04:04:59;;;;;;;23.07;4.83;;;;;;;19.31;72.65;101034.17;5007161;57;1140921;-64
2023/07/10 04:10:05;;;;;;;5.50;3.35;;;;;;;19.26;73.18;101036.50;4980976;57;1140753;-65
2023/07/10 04:15:11;;;;;;;9.20;3.75;;;;;;;19.32;73.83;101035.36;5034621;57;1138870;-65
2023/07/10 04:20:16;;;;;;;9.83;3.02;;;;;;;19.40;74.00;101021.64;5041427;56;1138919;-65
2023/07/10 04:25:22;;;;;;;13.20;3.50;;;;;;;19.47;73.78;101022.15;4944233;56;1139034;-64
2023/07/10 04:30:27;;;;;;;7.33;3.10;;;;;;;19.43;74.04;101017.27;4987490;57;1141008;-65
2023/07/10 04:35:33;;;;;;;4.03;3.00;;;;;;;19.44;75.20;101018.95;5054048;57;1138918;-64
2023/07/10 04:40:38;;;;;;;3.40;3.10;;;;;;;19.43;76.55;101008.72;5035451;56;1138898;-65
2023/07/10 04:45:44;;;;;;;10.80;3.25;;;;;;;19.46;76.00;101017.78;5036754;57;1139002;-65
2023/07/10 04:50:52;;;;;;;20.00;3.67;;;;;;;19.51;76.29;101018.17;5077268;56;1140930;-65
2023/07/10 04:56:00;;;;;;;10.58;3.20;;;;;;;19.55;75.94;101024.89;5057757;56;1140779;-65
2023/07/10 05:01:05;;;;;;;11.40;4.08;;;;;;;19.48;75.75;101015.78;5054741;56;1140953;-64
2023/07/10 05:06:11;;;;;;;14.60;3.60;;;;;;;19.46;76.33;101016.94;4965888;56;1140926;-64
2023/07/10 05:11:17;;;;;;;6.92;3.33;;;;;;;19.47;76.37;101011.41;4927945;58;1141025;-65
2023/07/10 05:16:23;;;;;;;10.43;3.52;;;;;;;19.49;76.71;101020.64;4968761;57;1138965;-64
2023/07/10 05:21:29;;;;;;;9.83;3.42;;;;;;;19.59;77.52;101016.83;4994340;57;1140798;-65
2023/07/10 05:26:34;;;;;;;4.92;3.50;;;;;;;19.75;77.52;101021.38;5055707;56;1138708;-65
2023/07/10 05:31:40;;;;;;;5.90;3.35;;;;;;;19.90;76.90;101025.09;4977483;56;1138717;-65
2023/07/10 05:36:46;;;;;;;7.15;3.02;;;;;;;20.13;77.75;101017.72;5003038;57;1225251;-64
2023/07/10 05:41:51;;;;;;;7.58;3.12;;;;;;;20.35;76.39;101023.72;4963264;57;1138985;-64
2023/07/10 05:46:57;;;;;;;9.68;3.33;;;;;;;20.45;76.27;101023.09;4871976;58;1138548;-64
2023/07/10 05:52:03;;;;;;;6.97;3.05;;;;;;;20.52;76.43;101020.53;4932004;56;1178194;-64
2023/07/10 05:57:09;;;;;;;5.70;2.80;;;;;;;20.61;76.12;101026.24;4904619;56;1138771;-66
2023/07/10 06:02:14;;;;;;;7.35;3.90;;;;;;;20.66;76.07;101032.77;4882989;57;1138961;-64
2023/07/10 06:07:20;;;;;;;6.37;3.45;;;;;;;20.67;75.63;101014.78;4875113;59;1139166;-64
2023/07/10 06:12:26;;;;;;;6.28;3.45;;;;;;;20.73;76.07;101011.92;4893839;58;1138786;-63
2023/07/10 06:17:31;;;;;;;7.00;3.27;;;;;;;20.82;76.38;101000.12;4880988;57;1138760;-65
2023/07/10 06:22:37;;;;;;;4.05;3.35;;;;;;;20.95;76.86;101009.30;4919753;57;1138874;-65
2023/07/10 06:27:43;;;;;;;7.40;3.05;;;;;;;21.05;75.71;100997.85;4909264;58;1139038;-65
2023/07/10 06:32:48;;;;;;;5.12;3.02;;;;;;;21.10;76.27;100995.12;4930781;58;1249679;-64
2023/07/10 06:37:54;;;;;;;8.90;3.40;;;;;;;21.16;76.12;101010.56;4929673;57;1139519;-64
2023/07/10 06:42:59;;;;;;;8.78;3.22;;;;;;;21.22;76.06;101010.75;4989778;58;1224808;-66
2023/07/10 06:48:06;;;;;;;8.30;3.80;;;;;;;21.34;76.78;101005.80;4954317;57;1241262;-65
2023/07/10 06:53:12;;;;;;;9.55;3.80;;;;;;;21.50;76.83;101007.05;4943093;56;1245534;-66
2023/07/10 06:58:17;;;;;;;9.60;3.27;;;;;;;21.62;76.22;101007.47;4954970;58;1245388;-65
2023/07/10 07:03:24;;;;;;;7.92;3.12;;;;;;;21.70;75.94;101010.92;4984825;57;1246178;-64
2023/07/10 07:08:29;;;;;;;11.15;3.70;;;;;;;21.81;76.00;101012.38;4988975;55;1247964;-66
2023/07/10 07:13:35;;;;;;;7.25;3.20;;;;;;;21.83;75.03;101002.28;4995095;55;1253274;-66
2023/07/10 07:18:43;;;;;;;6.05;3.17;;;;;;;21.88;74.81;100993.63;5015970;56;1139758;-65
2023/07/10 07:23:50;;;;;;;8.65;2.80;;;;;;;21.92;74.55;100994.44;4998020;55;1138636;-65
2023/07/10 07:28:56;;;;;;;7.05;3.45;;;;;;;21.98;74.95;100984.30;4997483;56;1138987;-65
2023/07/10 07:34:01;;;;;;;9.70;3.58;;;;;;;22.06;74.50;100972.13;5017452;56;1138831;-65
2023/07/10 07:39:07;;;;;;;3.65;3.35;;;;;;;22.05;74.54;100981.73;5000661;55;1138716;-65
2023/07/10 07:44:13;;;;;;;7.08;3.30;;;;;;;22.07;74.67;100988.63;4994793;56;1138854;-66
2023/07/10 07:49:21;;;;;;;3.53;3.23;;;;;;;22.06;75.18;100996.37;4928746;55;1139030;-66
2023/07/10 07:54:26;;;;;;;7.53;3.22;;;;;;;22.07;74.98;100987.27;4909083;56;1223737;-64
2023/07/10 07:59:32;;;;;;;11.80;3.33;;;;;;;22.10;74.79;101004.42;4872446;58;1139056;-65
2023/07/10 08:04:38;;;;;;;8.78;4.97;;;;;;;22.15;75.37;100993.63;4893094;58;1241928;-65
2023/07/10 08:09:43;;;;;;;17.62;4.45;;;;;;;22.22;74.77;101001.28;4968294;57;1139033;-65
2023/07/10 08:14:49;;;;;;;9.58;4.70;;;;;;;22.27;75.37;101007.81;4887512;57;1140914;-66
2023/07/10 08:19:54;;;;;;;45.83;6.30;;;;;;;22.31;74.95;100994.78;4751766;59;1139050;-65
2023/07/10 08:25:01;;;;;;;8.48;4.08;;;;;;;22.35;73.56;100970.49;4905970;58;1140896;-65
2023/07/10 08:30:08;;;;;;;9.83;3.10;;;;;;;22.38;73.40;101006.00;4824024;58;1138991;-67
2023/07/10 08:35:13;;;;;;;8.83;3.12;;;;;;;;;;4890397;57;1138956;-65
2023/07/10 08:40:31;;;;;;;7.20;3.12;;;;;;;22.68;73.56;101000.12;4949540;58;817715;-65
2023/07/10 08:45:38;;;;;;;9.30;3.27;;;;;;;22.85;72.83;101008.05;4967138;58;1136815;-65
2023/07/10 08:50:47;;;;;;;7.90;4.10;;;;;;;23.01;72.48;100997.91;4919730;58;1138777;-65
2023/07/10 08:56:03;;;;;;;4.83;2.95;;;;;;;23.21;72.64;100995.97;4844172;58;1139043;-65
2023/07/10 09:01:25;;;;;;;7.92;3.60;;;;;;;23.39;70.38;100997.19;4867232;59;1138699;-66
2023/07/10 09:06:44;;;;;;;8.08;3.00;;;;;;;23.53;70.38;100992.80;4933567;57;1139134;-66
2023/07/10 09:11:52;;;;;;;5.62;2.95;;;;;;;23.71;67.74;100986.96;4964181;57;1138845;-65
2023/07/10 09:16:59;;;;;;;5.12;3.40;;;;;;;23.87;68.35;100990.75;4974508;57;1138834;-66
2023/07/10 09:22:10;;;;;;;10.28;2.83;;;;;;;24.13;65.63;100987.45;4881616;57;1139011;-65
2023/07/10 09:27:16;;;;;;;10.58;3.33;;;;;;;24.24;64.86;100977.48;4894073;57;1140981;-66
2023/07/10 09:32:25;;;;;;;4.15;3.00;;;;;;;24.42;66.00;100972.92;4923800;57;1140868;-66
2023/07/10 09:37:37;;;;;;;6.35;3.20;;;;;;;24.65;65.34;100969.92;4958372;57;1138829;-66
2023/07/10 09:42:43;;;;;;;4.83;2.50;;;;;;;24.92;65.12;100977.64;4895280;57;1138766;-66
2023/07/10 09:47:50;;;;;;;3.70;2.65;;;;;;;25.30;58.01;100976.17;4871786;58;1138823;-67
2023/07/10 09:52:57;;;;;;;8.55;2.80;;;;;;;25.43;59.03;100949.11;4868153;59;1138761;-66
2023/07/10 09:58:05;;;;;;;8.53;2.83;;;;;;;25.43;59.03;100949.11;4912793;58;1138889;-65
2023/07/10 10:03:18;;;;;;;6.58;2.67;;;;;;;25.54;56.96;100941.73;4800658;58;1138693;-66
2023/07/10 10:08:34;;;;;;;5.87;2.77;;;;;;;25.60;55.46;100934.66;4945412;57;1138894;-65
2023/07/10 10:13:44;;;;;;;14.65;3.45;;;;;;;25.60;52.78;100923.82;4942076;57;1138924;-65
2023/07/10 10:19:05;;;;;;;11.73;2.55;;;;;;;25.55;53.03;100910.05;4945525;57;1141054;-64
2023/07/10 10:24:15;;;;;;;6.50;2.30;;;;;;;25.54;52.02;100899.74;4985689;57;1140817;-64
2023/07/10 10:30:04;;;;;;;8.80;2.70;;;;;;;25.54;54.37;100887.55;4932890;57;1138784;-63
2023/07/10 10:35:46;;;;;;;7.17;2.47;;;;;;;25.53;52.53;100874.22;4952651;57;1138836;-65
2023/07/10 10:41:17;;;;;;;9.85;2.80;;;;;;;25.49;53.27;100845.91;4923909;57;1138718;-63
2023/07/10 10:46:45;;;;;;;5.30;2.67;;;;;;;25.47;52.43;100839.86;4894381;58;1139197;-64
2023/07/10 10:52:10;;;;;;;6.62;3.55;;;;;;;25.44;53.08;100822.66;4748426;58;1138833;-63
2023/07/10 10:57:41;;;;;;;7.40;3.30;;;;;;;25.44;53.92;100808.60;4733291;58;1138912;-64
2023/07/10 11:02:57;;;;;;;8.10;2.80;;;;;;;25.48;54.33;100825.28;4891161;58;1138878;-63
2023/07/10 11:08:13;;;;;;;7.37;2.25;;;;;;;25.51;55.05;100821.60;4855310;58;1138850;-63
2023/07/10 11:13:36;;;;;;;12.73;2.55;;;;;;;25.54;53.28;100829.31;4785382;59;1139012;-64
2023/07/10 11:18:42;;;;;;;4.37;2.45;;;;;;;25.57;54.16;100819.42;4779430;59;1140954;-66
2023/07/10 11:23:50;;;;;;;5.75;2.45;;;;;;;25.64;52.40;100813.21;4790912;59;1138835;-65
2023/07/10 11:29:28;;;;;;;5.45;2.40;;;;;;;25.76;52.95;100808.29;4767270;59;1139008;-67
2023/07/10 11:34:38;;;;;;;3.42;2.30;;;;;;;26.18;53.16;100814.22;4787111;58;1139169;-64
2023/07/10 11:39:44;;;;;;;8.10;3.33;;;;;;;26.68;49.31;100807.67;4783087;58;1138823;-64
2023/07/10 11:44:56;;;;;;;2.52;2.33;;;;;;;27.09;47.26;100797.19;4783529;58;1138957;-65
2023/07/10 11:50:07;;;;;;;8.45;1.90;;;;;;;27.49;45.96;100786.84;4872992;57;1138875;-64
2023/07/10 11:55:15;;;;;;;3.50;2.50;;;;;;;27.79;43.15;100784.27;4938248;57;1139168;-65
2023/07/10 12:00:26;;;;;;;1.90;1.80;;;;;;;27.99;43.31;100791.66;4914642;57;1139059;-65
2023/07/10 12:05:38;;;;;;;8.60;2.27;;;;;;;28.07;40.89;100795.15;4876603;58;1138910;-66
2023/07/10 12:10:48;;;;;;;6.42;2.52;;;;;;;28.03;39.60;100781.17;4850165;58;1139094;-66
2023/07/10 12:15:57;;;;;;;5.10;2.10;;;;;;;28.03;40.40;100785.77;4854248;58;1138691;-66
2023/07/10 12:21:06;;;;;;;2.15;1.95;;;;;;;28.09;39.81;100784.88;4949270;57;1138893;-66
2023/07/10 12:26:17;;;;;;;3.35;2.12;;;;;;;28.30;40.02;100770.81;4897531;57;1139045;-68
2023/07/10 12:31:23;;;;;;;4.27;1.80;;;;;;;28.59;40.04;100770.52;4943536;57;1138778;-66
2023/07/10 12:36:33;;;;;;;10.68;2.05;;;;;;;28.69;39.63;100746.31;4963105;57;1139048;-66
2023/07/10 12:41:45;;;;;;;7.05;2.17;;;;;;;28.88;38.00;100752.53;4928302;57;1141025;-67
2023/07/10 12:47:07;;;;;;;9.20;2.33;;;;;;;28.82;37.91;100746.14;4891610;56;1139170;-65
2023/07/10 12:52:14;;;;;;;8.18;3.08;;;;;;;28.97;38.98;100744.34;4918114;57;1138909;-66
2023/07/10 12:57:29;;;;;;;2.60;2.00;;;;;;;29.11;39.70;100738.13;4982926;57;1138912;-65
2023/07/10 13:02:42;;;;;;;10.17;5.00;;;;;;;29.19;39.34;100730.95;5029724;57;1138895;-64
2023/07/10 13:07:51;;;;;;;2.77;2.25;;;;;;;29.42;39.45;100730.18;5021224;57;1141022;-67
2023/07/10 13:13:01;;;;;;;2.90;1.80;;;;;;;29.57;37.13;100723.17;4959983;57;1138812;-65
2023/07/10 13:18:23;;;;;;;4.90;2.55;;;;;;;29.61;38.27;100716.72;5028659;56;1139045;-67
2023/07/10 13:23:29;;;;;;;6.42;2.25;;;;;;;29.75;37.89;100709.94;5071430;56;1138777;-65
2023/07/10 13:28:36;;;;;;;2.85;2.30;;;;;;;29.83;36.51;100706.82;5024981;57;1138937;-66
2023/07/10 13:33:42;;;;;;;4.25;2.20;;;;;;;29.91;34.93;100698.28;5052800;57;1138872;-67
2023/07/10 13:38:48;;;;;;;7.83;2.65;;;;;;;30.02;36.05;100691.98;4962970;57;1139002;-67
2023/07/10 13:43:55;;;;;;;4.28;2.30;;;;;;;30.01;36.25;100684.87;5024973;56;1138705;-63
2023/07/10 13:49:05;;;;;;;4.17;2.25;;;;;;;29.97;35.57;100678.23;5019153;56;1138775;-64
2023/07/10 13:54:11;;;;;;;3.15;2.50;;;;;;;30.02;35.32;100677.52;5014242;56;1138809;-63
2023/07/10 13:59:21;;;;;;;3.17;2.50;;;;;;;30.16;36.99;100679.41;5034129;56;1145179;-63
2023/07/10 14:04:27;;;;;;;6.37;2.45;;;;;;;30.28;35.09;100670.63;5040235;56;1138982;-67
2023/07/10 14:09:32;;;;;;;3.30;2.43;;;;;;;30.35;35.82;100672.69;5002536;56;1139000;-65
2023/07/10 14:14:38;;;;;;;8.23;2.58;;;;;;;30.43;35.47;100662.17;4978847;55;1138923;-65
2023/07/10 14:19:43;;;;;;;3.50;2.25;;;;;;;30.37;34.99;100664.55;5021738;54;1139161;-65
2023/07/10 14:24:49;;;;;;;5.35;2.75;;;;;;;30.25;34.36;100659.66;5046509;56;1138747;-66
2023/07/10 14:29:56;;;;;;;5.47;2.42;;;;;;;30.20;35.67;100651.94;4994931;56;1138870;-65
2023/07/10 14:35:01;;;;;;;3.35;2.42;;;;;;;30.15;34.80;100655.39;5019223;54;1138854;-66
2023/07/10 14:40:10;;;;;;;13.10;4.45;;;;;;;30.06;36.33;100644.06;5066811;55;1139096;-66
2023/07/10 14:45:18;;;;;;;17.02;3.00;;;;;;;30.00;36.26;100636.01;4975515;57;1140965;-66
2023/07/10 14:50:23;;;;;;;9.00;3.25;;;;;;;29.96;36.52;100623.89;4975030;57;1140973;-65
2023/07/10 14:55:29;;;;;;;7.87;2.87;;;;;;;29.93;36.33;100618.95;5011351;56;1138849;-66
2023/07/10 15:00:35;;;;;;;7.67;2.80;;;;;;;29.91;36.31;100612.91;5015474;56;1138903;-66
2023/07/10 15:05:44;;;;;;;5.92;2.95;;;;;;;29.88;36.55;100605.20;5008357;56;1139270;-65
2023/07/10 15:10:50;;;;;;;4.65;2.67;;;;;;;29.83;37.46;100595.55;5028175;56;1139090;-65
2023/07/10 15:15:59;;;;;;;4.75;2.67;;;;;;;29.84;37.90;100586.30;4986742;57;1138863;-64
2023/07/10 15:21:04;;;;;;;4.58;2.58;;;;;;;29.96;38.17;100571.53;4980296;57;1138939;-66
2023/07/10 15:26:09;;;;;;;4.20;2.15;;;;;;;30.10;38.69;100571.28;5073816;55;1138812;-65
2023/07/10 15:31:16;;;;;;;3.52;3.15;;;;;;;30.20;37.70;100569.55;5008234;57;1138826;-65
2023/07/10 15:36:22;;;;;;;6.50;3.15;;;;;;;30.17;36.67;100564.58;5048753;57;1138955;-63
2023/07/10 15:41:28;;;;;;;5.12;2.37;;;;;;;30.22;38.21;100559.22;5068561;57;1139170;-63
2023/07/10 15:46:34;;;;;;;3.15;2.85;;;;;;;30.38;39.12;100552.94;4977427;56;1138677;-64
2023/07/10 15:51:39;;;;;;;5.72;3.12;;;;;;;30.53;37.18;100547.43;4967089;56;1138798;-63
2023/07/10 15:56:46;;;;;;;12.33;4.45;;;;;;;30.55;38.36;100548.05;4986549;56;1139004;-66
2023/07/10 16:01:52;;;;;;;9.83;3.30;;;;;;;30.59;39.31;100545.08;5033238;56;1141387;-65
2023/07/10 16:06:58;;;;;;;3.75;3.42;;;;;;;30.57;38.89;100532.22;5037171;57;1138839;-63
2023/07/10 16:12:03;;;;;;;18.25;3.35;;;;;;;30.38;38.84;100530.28;4991478;58;1138777;-65
2023/07/10 16:17:14;;;;;;;3.47;3.17;;;;;;;30.24;39.23;100522.97;4971686;57;1140833;-66
2023/07/10 16:22:20;;;;;;;12.13;5.05;;;;;;;30.13;39.84;100512.94;4955130;57;1139060;-65
2023/07/10 16:27:26;;;;;;;10.70;4.78;;;;;;;30.03;39.49;100504.59;4958281;57;1141006;-66
2023/07/10 16:32:32;;;;;;;13.60;11.33;;;;;;;29.94;38.82;100497.34;4971694;58;1140998;-65
2023/07/10 16:37:37;;;;;;;13.43;8.93;;;;;;;29.87;39.76;100491.20;4912768;57;1143244;-65
2023/07/10 16:42:44;;;;;;;13.58;7.17;;;;;;;29.81;40.73;100489.98;4898120;58;1140781;-63
2023/07/10 16:47:50;;;;;;;9.98;3.90;;;;;;;29.71;41.58;100483.83;4866936;58;1141196;-64
2023/07/10 16:52:56;;;;;;;15.15;4.22;;;;;;;29.63;42.47;100485.61;4873027;58;1138927;-64
2023/07/10 16:58:01;;;;;;;11.70;4.90;;;;;;;29.53;43.29;100490.85;4897915;58;1140851;-63
2023/07/10 17:03:11;;;;;;;6.28;5.47;;;;;;;29.42;42.93;100495.83;4911798;58;1140872;-64
2023/07/10 17:08:21;;;;;;;11.73;5.30;;;;;;;29.34;42.45;100482.84;4899171;58;1139163;-64
2023/07/10 17:13:31;;;;;;;14.23;5.55;;;;;;;29.27;43.05;100490.88;5012799;57;1141041;-64
2023/07/10 17:18:36;;;;;;;6.83;4.30;;;;;;;29.19;43.15;100494.80;5043471;57;1140978;-64
2023/07/10 17:23:43;;;;;;;8.83;3.58;;;;;;;29.11;44.55;100489.74;5019388;57;1139149;-66
2023/07/10 17:28:49;;;;;;;19.70;4.20;;;;;;;28.95;45.49;100505.47;5035661;56;1138748;-63
2023/07/10 17:33:58;;;;;;;11.25;3.30;;;;;;;28.62;47.52;100516.42;5055391;57;1141081;-62
2023/07/10 17:39:07;;;;;;;5.25;3.10;;;;;;;28.48;48.10;100516.90;5035708;57;1140975;-65
2023/07/10 17:44:27;;;;;;;18.40;3.90;;;;;;;28.33;48.03;100527.72;5034928;57;1139114;-63
2023/07/10 17:49:32;;;;;;;10.95;4.30;;;;;;;27.98;50.05;100547.17;5032603;57;1140979;-64
2023/07/10 17:54:38;;;;;;;13.68;4.90;;;;;;;27.60;51.27;100593.20;5053778;57;1141034;-62
2023/07/10 17:59:50;;;;;;;13.32;5.50;;;;;;;26.31;65.00;100643.87;5029985;57;1140871;-64
2023/07/10 18:04:55;;;;;;;14.95;7.25;;;;;;;24.93;73.61;100664.07;5022856;57;1140770;-63
2023/07/10 18:10:00;;;;;;;16.55;7.42;;;;;;;24.11;74.17;100635.49;5045463;57;1140968;-64
2023/07/10 18:15:18;;;;;;;17.25;8.20;;;;;;;23.93;77.50;100643.33;4975502;57;1141201;-65
2023/07/10 18:20:23;;;;;;;15.05;6.03;;;;;;;23.78;77.07;100628.11;4959119;56;1141028;-63
2023/07/10 18:25:29;;;;;;;12.33;6.65;;;;;;;23.73;79.30;100610.84;4985377;57;1140992;-65
2023/07/10 18:30:35;;;;;;;12.70;6.85;;;;;;;23.66;79.92;100597.33;4965437;58;1140856;-64
2023/07/10 18:35:41;;;;;;;15.32;7.00;;;;;;;23.70;83.06;100609.89;4946433;58;1141312;-62
2023/07/10 18:40:51;;;;;;;8.38;6.15;;;;;;;23.61;85.33;100611.11;4945748;58;1140779;-65
2023/07/10 18:45:57;;;;;;;9.35;7.42;;;;;;;23.47;86.24;100600.74;4966001;58;1138965;-66
2023/07/10 18:51:08;;;;;;;9.78;7.00;;;;;;;23.53;86.71;100613.45;5019553;57;1138655;-63
2023/07/10 18:56:13;;;;;;;11.25;6.97;;;;;;;23.57;87.30;100616.59;5027671;56;1138507;-66
2023/07/10 19:01:21;;;;;;;12.40;7.40;;;;;;;23.38;87.07;100627.57;5026492;56;1141016;-66
2023/07/10 19:06:38;;;;;;;18.00;11.97;;;;;;;23.28;88.06;100615.80;4982573;57;1141176;-64
2023/07/10 19:11:44;;;;;;;27.00;19.10;;;;;;;23.42;89.23;100628.84;4963038;57;1143133;-65
2023/07/10 19:16:52;;;;;;;17.07;8.75;;;;;;;23.39;88.77;100636.82;5056918;56;1142882;-66
2023/07/10 19:21:57;;;;;;;13.58;7.47;;;;;;;23.41;89.02;100639.33;5059763;57;1141063;-65
2023/07/10 19:27:03;;;;;;;15.30;7.00;;;;;;;23.30;89.54;100641.25;5055553;56;1140870;-65
2023/07/10 19:32:13;;;;;;;14.18;8.68;;;;;;;23.12;90.42;100650.68;5055541;56;1140891;-63
2023/07/10 19:37:19;;;;;;;10.35;7.45;;;;;;;22.95;91.65;100657.41;5054087;56;1141010;-66
2023/07/10 19:42:24;;;;;;;12.25;7.92;;;;;;;22.82;93.77;100663.20;5055351;56;1140865;-65
2023/07/10 19:47:30;;;;;;;32.48;19.60;;;;;;;22.75;94.04;100649.66;5074329;55;1141038;-63
2023/07/10 19:52:36;;;;;;;19.07;10.13;;;;;;;22.75;94.12;100654.53;5078922;55;1142913;-65
2023/07/10 19:57:42;;;;;;;23.00;10.55;;;;;;;22.97;95.76;100647.25;5096577;56;1143061;-66
2023/07/10 20:02:50;;;;;;;12.13;8.83;;;;;;;23.09;93.92;100640.28;5035570;57;1142895;-64
2023/07/10 20:07:57;;;;;;;10.55;7.40;;;;;;;23.14;94.38;100633.78;5035743;57;1140771;-64
2023/07/10 20:13:04;;;;;;;16.37;7.95;;;;;;;23.11;93.64;100631.47;5055267;56;1140984;-66
2023/07/10 20:18:19;;;;;;;17.73;11.70;;;;;;;23.10;93.37;100639.77;4973277;57;1140829;-64
2023/07/10 20:23:32;;;;;;;12.20;8.35;;;;;;;22.89;93.28;100633.09;4948784;57;1142923;-67
2023/07/10 20:28:40;;;;;;;12.73;8.98;;;;;;;22.90;94.63;100623.98;4974408;57;1140926;-64
2023/07/10 20:33:49;;;;;;;18.07;8.15;;;;;;;22.69;95.03;100639.64;4994302;57;1140745;-66
2023/07/10 20:38:54;;;;;;;13.75;7.97;;;;;;;22.34;98.37;100648.13;4974991;57;1141428;-65
2023/07/10 20:44:00;;;;;;;15.05;7.45;;;;;;;21.91;100.00;100657.48;4974348;57;1141103;-63
2023/07/10 20:49:15;;;;;;;17.92;7.58;;;;;;;21.65;100.00;100658.00;4993727;57;1142989;-66
2023/07/10 20:54:23;;;;;;;11.55;7.90;;;;;;;21.56;100.00;100654.23;4965436;57;1143009;-66
2023/07/10 20:59:29;;;;;;;9.65;7.30;;;;;;;21.51;100.00;100655.31;4976889;57;1143027;-64
2023/07/10 21:04:34;;;;;;;12.50;7.85;;;;;;;21.53;100.00;100651.94;4980192;57;1141069;-64
2023/07/10 21:09:44;;;;;;;9.40;7.33;;;;;;;21.54;100.00;100654.41;4974111;57;1142905;-65
2023/07/10 21:14:50;;;;;;;12.20;6.45;;;;;;;21.49;100.00;100654.66;4974933;57;1141660;-66
2023/07/10 21:19:56;;;;;;;12.35;7.60;;;;;;;21.44;100.00;100652.52;5007848;56;1142824;-64
2023/07/10 21:25:02;;;;;;;10.13;7.22;;;;;;;21.34;100.00;100662.74;5002061;57;1143196;-63
2023/07/10 21:30:20;;;;;;;9.70;7.42;;;;;;;21.28;100.00;100672.88;5007567;57;1143064;-63
2023/07/10 21:35:30;;;;;;;8.00;6.75;;;;;;;21.12;100.00;100681.92;4965967;57;1140960;-64
2023/07/10 21:40:38;;;;;;;10.78;7.72;;;;;;;20.93;100.00;100681.93;5032126;55;1141094;-64
2023/07/10 21:45:43;;;;;;;10.53;7.73;;;;;;;20.66;100.00;100686.03;5037091;56;1143419;-64
2023/07/10 21:50:55;;;;;;;9.60;6.65;;;;;;;20.54;100.00;100693.36;4961203;57;1143356;-64
2023/07/10 21:56:03;;;;;;;9.68;7.55;;;;;;;20.40;100.00;100698.16;4980448;57;1140918;-63
2023/07/10 22:01:18;;;;;;;12.13;7.00;;;;;;;20.17;100.00;100700.78;4961060;57;1140783;-65
2023/07/10 22:06:27;;;;;;;11.05;6.65;;;;;;;20.07;100.00;100695.64;4960915;57;1142997;-63
2023/07/10 22:11:34;;;;;;;10.13;5.55;;;;;;;20.00;100.00;100695.53;4961351;57;1143104;-65
2023/07/10 22:16:39;;;;;;;12.00;6.05;;;;;;;19.91;100.00;100705.95;5044751;57;1143159;-64
2023/07/10 22:21:45;;;;;;;7.70;5.65;;;;;;;19.84;100.00;100716.23;5028323;57;1142966;-66
2023/07/10 22:26:50;;;;;;;9.28;5.15;;;;;;;19.69;100.00;100732.23;4954281;58;1140787;-64
2023/07/10 22:31:56;;;;;;;9.23;6.53;;;;;;;19.51;100.00;100741.84;4979759;57;1141119;-65
